Time;durP1;ratioP1;P1;durP2;ratioP2;P2;SDS_P1;SDS_P2;PMS_P1;PMS_P2;Temp;Humidity;BMP_temperature;BMP_pressure;BME280_temperature;BME280_humidity;BME280_pressure;Samples;Min_cycle;Max_cycle;Signal;HPM_P1;HPM_P2
2022/08/26 00:01:00;;;;;;;3.30;3.00;;;19.70;90.80;;;;;;5051227;28;20706;-80
2022/08/26 00:03:26;;;;;;;2.63;2.40;;;19.60;91.10;;;;;;5058865;28;21025;-80
2022/08/26 00:05:53;;;;;;;3.30;3.10;;;19.70;91.40;;;;;;5064458;28;20654;-80
2022/08/26 00:08:22;;;;;;;2.97;2.73;;;19.60;91.60;;;;;;5050021;28;20810;-80
2022/08/26 00:10:49;;;;;;;3.47;2.80;;;19.60;91.70;;;;;;5064212;28;20637;-80
2022/08/26 00:13:17;;;;;;;3.77;3.17;;;19.60;91.80;;;;;;5056979;28;20657;-80
2022/08/26 00:15:45;;;;;;;3.10;2.80;;;19.50;92.00;;;;;;5065067;28;20634;-80
2022/08/26 00:18:12;;;;;;;3.50;3.03;;;19.50;92.10;;;;;;5053976;28;20662;-81
2022/08/26 00:20:39;;;;;;;2.90;2.60;;;19.50;92.50;;;;;;5068038;28;20625;-80
2022/08/26 00:23:06;;;;;;;3.03;2.83;;;19.40;92.40;;;;;;5066619;28;20649;-81
2022/08/26 00:25:35;;;;;;;3.33;3.03;;;19.40;92.50;;;;;;5069079;28;20617;-79
2022/08/26 00:28:02;;;;;;;3.30;3.00;;;19.40;92.40;;;;;;5051490;28;20630;-80
2022/08/26 00:30:30;;;;;;;3.13;2.90;;;19.30;92.50;;;;;;5067133;28;20653;-80
2022/08/26 00:32:58;;;;;;;3.27;2.93;;;19.40;92.30;;;;;;5048173;28;21030;-81
2022/08/26 00:35:26;;;;;;;4.03;3.37;;;19.40;92.40;;;;;;5059943;28;20618;-81
2022/08/26 00:37:54;;;;;;;2.60;2.40;;;19.40;91.60;;;;;;5049609;28;20686;-80
2022/08/26 00:40:23;;;;;;;2.93;2.60;;;19.40;91.80;;;;;;5060128;28;20625;-80
2022/08/26 00:42:51;;;;;;;4.17;3.77;;;19.30;91.40;;;;;;5052396;28;20761;-80
2022/08/26 00:45:18;;;;;;;3.47;3.07;;;19.30;91.60;;;;;;5067117;28;20724;-80
2022/08/26 00:47:48;;;;;;;2.80;2.60;;;19.30;91.80;;;;;;5056134;28;20607;-79
2022/08/26 00:50:21;;;;;;;4.23;3.53;;;19.20;92.20;;;;;;5068639;28;20675;-81
2022/08/26 00:52:50;;;;;;;3.53;3.23;;;19.10;92.50;;;;;;5066877;28;20632;-80
2022/08/26 00:55:21;;;;;;;3.57;3.03;;;19.10;92.90;;;;;;5054749;28;20665;-80
2022/08/26 00:57:50;;;;;;;4.07;3.40;;;19.00;92.90;;;;;;5063613;28;21026;-81
2022/08/26 01:00:25;;;;;;;3.43;3.13;;;19.10;92.50;;;;;;5055285;28;20634;-80
2022/08/26 01:02:54;;;;;;;3.03;2.73;;;19.10;92.30;;;;;;5066464;28;20708;-80
2022/08/26 01:05:22;;;;;;;3.40;3.10;;;19.10;92.40;;;;;;5067423;28;20617;-79
2022/08/26 01:07:49;;;;;;;3.53;3.20;;;19.10;92.90;;;;;;5048323;28;20636;-80
2022/08/26 01:10:19;;;;;;;3.80;3.13;;;19.10;92.60;;;;;;5048569;28;20665;-80
2022/08/26 01:12:49;;;;;;;4.70;3.63;;;19.10;92.90;;;;;;5060224;28;20635;-81
2022/08/26 01:15:24;;;;;;;3.73;3.43;;;19.10;92.90;;;;;;5065030;28;20730;-80
2022/08/26 01:17:52;;;;;;;4.83;4.10;;;19.00;93.10;;;;;;5047652;28;20653;-80
2022/08/26 01:20:28;;;;;;;4.17;3.80;;;19.00;93.50;;;;;;5065093;28;20633;-80
2022/08/26 01:23:00;;;;;;;3.30;3.00;;;19.00;93.70;;;;;;5065847;28;20729;-80
2022/08/26 01:25:32;;;;;;;3.00;2.80;;;18.90;93.90;;;;;;5067776;28;20625;-80
2022/08/26 01:28:05;;;;;;;3.27;2.97;;;18.90;93.50;;;;;;5051667;28;20630;-80
2022/08/26 01:30:33;;;;;;;3.00;2.57;;;18.80;93.10;;;;;;5053776;28;20619;-80
2022/08/26 01:33:06;;;;;;;2.87;2.57;;;18.80;93.20;;;;;;5048624;28;20622;-78
2022/08/26 01:35:33;;;;;;;2.67;2.43;;;18.90;93.10;;;;;;5056442;28;20987;-80
2022/08/26 01:38:03;;;;;;;3.60;3.30;;;18.90;93.20;;;;;;5066828;28;21066;-80
2022/08/26 01:40:36;;;;;;;3.93;3.03;;;18.80;93.40;;;;;;5066162;28;20629;-80
2022/08/26 01:43:07;;;;;;;3.30;3.00;;;18.90;93.40;;;;;;5047769;28;20627;-80
2022/08/26 01:45:36;;;;;;;3.70;3.40;;;18.90;93.60;;;;;;5066678;28;20610;-80
2022/08/26 01:48:11;;;;;;;4.97;3.03;;;18.90;94.00;;;;;;5060010;28;20635;-80
2022/08/26 01:50:39;;;;;;;4.10;3.70;;;18.80;94.30;;;;;;5050474;28;21261;-78
2022/08/26 01:53:12;;;;;;;4.53;3.53;;;18.80;94.40;;;;;;5065939;28;20632;-81
2022/08/26 01:55:45;;;;;;;6.20;4.30;;;18.80;94.80;;;;;;5054802;28;20759;-80
2022/08/26 01:58:19;;;;;;;4.57;3.50;;;18.70;95.20;;;;;;5051839;28;20649;-80
2022/08/26 02:00:47;;;;;;;4.33;3.27;;;18.70;95.60;;;;;;5051921;28;20625;-80
2022/08/26 02:03:16;;;;;;;3.53;3.23;;;18.60;95.60;;;;;;5047303;28;20622;-80
2022/08/26 02:05:45;;;;;;;3.97;2.90;;;18.50;95.80;;;;;;5049387;28;20637;-80
2022/08/26 02:08:16;;;;;;;4.23;2.83;;;18.60;96.00;;;;;;5064564;28;20637;-80
2022/08/26 02:10:43;;;;;;;4.23;2.87;;;18.50;96.20;;;;;;5047182;28;20680;-80
2022/08/26 02:13:11;;;;;;;3.50;3.07;;;18.50;96.40;;;;;;5058482;28;21258;-80
2022/08/26 02:15:42;;;;;;;4.00;3.70;;;18.40;96.40;;;;;;5064918;28;20637;-81
2022/08/26 02:18:10;;;;;;;2.97;2.70;;;18.50;96.70;;;;;;5059071;28;20646;-80
2022/08/26 02:20:38;;;;;;;3.40;3.10;;;18.50;96.50;;;;;;5050360;28;21055;-80
2022/08/26 02:23:07;;;;;;;4.50;3.77;;;18.60;96.20;;;;;;5062285;28;20625;-80
2022/08/26 02:25:46;;;;;;;2.77;2.57;;;18.60;95.90;;;;;;5066999;28;20597;-80
2022/08/26 02:28:16;;;;;;;2.80;2.60;;;18.60;94.90;;;;;;5048332;28;20630;-80
2022/08/26 02:30:43;;;;;;;3.50;3.20;;;18.50;95.10;;;;;;5061764;28;20637;-80
2022/08/26 02:33:10;;;;;;;7.57;3.23;;;18.60;95.10;;;;;;5062794;28;20630;-80
2022/08/26 02:35:38;;;;;;;2.60;2.40;;;18.60;95.00;;;;;;5053408;28;20668;-79
2022/08/26 02:38:07;;;;;;;3.43;3.13;;;18.50;95.10;;;;;;5061770;28;20629;-79
2022/08/26 02:40:38;;;;;;;3.37;3.00;;;18.50;95.60;;;;;;5066790;28;20663;-79
2022/08/26 02:43:05;;;;;;;3.77;3.20;;;18.40;95.60;;;;;;5060567;28;20632;-79
2022/08/26 02:45:32;;;;;;;3.43;3.13;;;18.40;95.70;;;;;;5067235;28;20733;-80
2022/08/26 02:47:59;;;;;;;3.90;2.90;;;18.40;96.00;;;;;;5051186;28;20629;-79
2022/08/26 02:50:27;;;;;;;3.37;3.07;;;18.30;96.20;;;;;;5046680;28;20641;-79
2022/08/26 02:52:55;;;;;;;4.90;3.10;;;18.20;96.60;;;;;;5048231;28;20638;-79
2022/08/26 02:55:21;;;;;;;3.77;2.53;;;18.20;97.00;;;;;;5056178;28;20735;-79
2022/08/26 02:57:50;;;;;;;4.47;3.30;;;18.10;97.20;;;;;;5053339;28;20638;-79
2022/08/26 03:00:18;;;;;;;2.97;2.77;;;18.10;97.40;;;;;;5051245;28;21107;-79
2022/08/26 03:02:45;;;;;;;4.30;3.60;;;18.10;97.20;;;;;;5053001;28;20671;-79
2022/08/26 03:05:12;;;;;;;3.60;2.70;;;18.20;96.90;;;;;;5056378;28;20634;-79
2022/08/26 03:07:40;;;;;;;3.70;3.37;;;18.20;96.20;;;;;;5061627;28;20633;-79
2022/08/26 03:10:11;;;;;;;2.93;2.73;;;18.20;96.10;;;;;;5051328;28;20630;-79
2022/08/26 03:12:40;;;;;;;3.57;3.27;;;18.10;96.70;;;;;;5049623;28;20744;-79
2022/08/26 03:15:10;;;;;;;3.63;3.10;;;18.10;97.00;;;;;;5062001;28;20621;-79
2022/08/26 03:17:37;;;;;;;3.67;2.93;;;18.00;97.20;;;;;;5067041;28;20628;-79
2022/08/26 03:20:07;;;;;;;4.17;3.77;;;18.00;97.40;;;;;;5050139;28;21242;-79
2022/08/26 03:22:35;;;;;;;4.10;3.73;;;18.00;97.00;;;;;;5064297;28;20978;-79
2022/08/26 03:25:05;;;;;;;4.10;3.27;;;18.10;97.10;;;;;;5050523;28;21066;-79
2022/08/26 03:27:34;;;;;;;3.13;2.90;;;18.10;96.80;;;;;;5065851;28;20633;-79
2022/08/26 03:32:48;;;;;;;2.70;2.53;;;18.00;97.10;;;;;;5062191;28;21366;-79
2022/08/26 03:35:16;;;;;;;3.47;2.73;;;17.90;97.40;;;;;;5063251;28;20677;-79
2022/08/26 03:37:44;;;;;;;3.20;2.57;;;17.90;97.40;;;;;;5064559;28;21061;-79
2022/08/26 03:40:12;;;;;;;4.00;3.20;;;17.90;97.30;;;;;;5050707;28;21242;-79
2022/08/26 03:42:40;;;;;;;3.53;3.17;;;17.90;97.00;;;;;;5065703;28;20678;-79
2022/08/26 03:45:11;;;;;;;3.50;3.30;;;17.90;97.10;;;;;;5069407;28;20702;-79
2022/08/26 03:47:39;;;;;;;3.70;2.60;;;17.90;97.40;;;;;;5067381;28;20636;-79
2022/08/26 03:50:10;;;;;;;3.10;2.80;;;18.00;97.40;;;;;;5061963;28;20666;-78
2022/08/26 03:52:37;;;;;;;2.37;2.23;;;17.90;97.50;;;;;;5050496;28;20738;-79
2022/08/26 03:55:05;;;;;;;3.00;2.70;;;17.90;97.40;;;;;;5064522;28;20698;-79
2022/08/26 03:57:32;;;;;;;3.77;3.37;;;17.90;97.40;;;;;;5057167;28;20733;-79
2022/08/26 03:59:59;;;;;;;4.80;3.33;;;17.90;97.30;;;;;;5059332;28;20676;-78
2022/08/26 04:02:26;;;;;;;4.37;3.90;;;17.90;97.30;;;;;;5054129;28;20725;-79
2022/08/26 04:04:53;;;;;;;3.47;3.17;;;17.80;97.50;;;;;;5062983;28;20666;-79
2022/08/26 04:07:21;;;;;;;3.90;2.97;;;17.80;97.60;;;;;;5057264;28;20650;-79
2022/08/26 04:09:48;;;;;;;4.10;3.00;;;17.70;97.60;;;;;;5056323;28;20641;-79
2022/08/26 04:12:15;;;;;;;3.60;3.30;;;17.70;97.50;;;;;;5069160;28;20641;-77
2022/08/26 04:14:42;;;;;;;3.40;3.10;;;17.70;97.00;;;;;;5060807;28;20626;-79
2022/08/26 04:17:09;;;;;;;3.93;3.30;;;17.80;96.70;;;;;;5048867;28;20717;-79
2022/08/26 04:19:36;;;;;;;4.17;3.80;;;17.70;97.00;;;;;;5060920;28;20686;-79
2022/08/26 04:22:06;;;;;;;2.90;2.60;;;17.70;97.10;;;;;;5056129;28;20622;-80
2022/08/26 04:24:35;;;;;;;4.23;3.70;;;17.60;97.40;;;;;;5062324;28;20632;-80
2022/08/26 04:27:02;;;;;;;3.60;3.20;;;17.70;97.10;;;;;;5066281;28;20657;-81
2022/08/26 04:29:29;;;;;;;3.63;3.33;;;17.70;97.30;;;;;;5061732;28;20625;-80
2022/08/26 04:31:57;;;;;;;4.53;3.73;;;17.60;97.60;;;;;;5062271;28;21036;-80
2022/08/26 04:34:25;;;;;;;4.47;4.07;;;17.60;97.70;;;;;;5057902;28;20662;-80
2022/08/26 04:36:52;;;;;;;4.30;3.90;;;17.60;97.90;;;;;;5049621;28;21200;-80
2022/08/26 04:39:21;;;;;;;4.43;3.43;;;17.70;97.60;;;;;;5048713;28;20690;-80
2022/08/26 04:41:50;;;;;;;3.57;3.10;;;17.80;97.40;;;;;;5050092;28;20665;-81
2022/08/26 04:44:17;;;;;;;3.77;3.40;;;17.70;97.80;;;;;;5057980;28;20620;-80
2022/08/26 04:46:44;;;;;;;3.13;2.83;;;17.60;98.20;;;;;;5057496;28;20712;-80
2022/08/26 04:49:13;;;;;;;5.57;3.70;;;17.60;98.40;;;;;;5062629;28;20614;-80
2022/08/26 04:51:40;;;;;;;4.07;3.57;;;17.70;98.70;;;;;;5060245;28;20626;-80
2022/08/26 04:54:08;;;;;;;3.23;2.93;;;17.60;98.70;;;;;;5065828;28;20650;-80
2022/08/26 04:56:36;;;;;;;3.90;3.07;;;17.60;98.70;;;;;;5061838;28;20636;-80
2022/08/26 04:59:07;;;;;;;2.67;2.47;;;17.60;99.00;;;;;;5065865;28;20726;-81
2022/08/26 05:01:35;;;;;;;3.13;2.93;;;17.70;99.20;;;;;;5049623;28;20626;-81
2022/08/26 05:04:02;;;;;;;4.27;3.50;;;17.70;99.20;;;;;;5058508;28;20634;-81
2022/08/26 05:06:29;;;;;;;3.53;2.73;;;17.80;99.00;;;;;;5062726;28;20714;-81
2022/08/26 05:08:58;;;;;;;2.80;2.60;;;18.00;98.60;;;;;;5056922;28;21175;-81
2022/08/26 05:11:25;;;;;;;2.80;2.50;;;18.10;98.30;;;;;;5048782;28;20614;-81
2022/08/26 05:13:53;;;;;;;4.30;3.50;;;18.20;98.20;;;;;;5068269;28;20657;-80
2022/08/26 05:16:22;;;;;;;3.50;3.27;;;18.10;98.40;;;;;;5067235;28;20613;-80
2022/08/26 05:18:50;;;;;;;4.40;3.00;;;18.20;98.20;;;;;;5058515;28;20708;-81
2022/08/26 05:21:19;;;;;;;6.27;3.73;;;18.20;97.90;;;;;;5052950;28;20684;-81
2022/08/26 05:23:47;;;;;;;2.87;2.63;;;18.40;97.20;;;;;;5066888;28;20666;-81
2022/08/26 05:26:14;;;;;;;3.57;3.27;;;18.50;96.90;;;;;;5060126;28;20621;-80
2022/08/26 05:28:41;;;;;;;3.30;3.00;;;18.60;96.70;;;;;;5061550;28;20700;-81
2022/08/26 05:31:16;;;;;;;5.03;3.80;;;18.60;96.90;;;;;;5059041;28;20625;-81
2022/08/26 05:33:45;;;;;;;3.67;3.33;;;18.50;97.50;;;;;;5049309;28;20627;-81
2022/08/26 05:36:17;;;;;;;4.10;3.70;;;18.50;97.70;;;;;;5065444;28;20618;-81
2022/08/26 05:38:44;;;;;;;3.40;3.10;;;18.50;97.70;;;;;;5051178;28;20657;-81
2022/08/26 05:41:17;;;;;;;3.60;3.30;;;18.40;98.00;;;;;;5055776;28;20622;-81
2022/08/26 05:43:44;;;;;;;4.47;3.30;;;18.40;98.50;;;;;;5054744;28;20645;-81
2022/08/26 05:46:11;;;;;;;4.27;3.87;;;18.50;97.90;;;;;;5061040;28;20734;-81
2022/08/26 05:48:40;;;;;;;5.03;4.53;;;18.70;97.40;;;;;;5047129;28;20699;-81
2022/08/26 05:51:11;;;;;;;3.67;3.37;;;18.70;96.60;;;;;;5049259;28;20708;-81
2022/08/26 05:53:40;;;;;;;4.77;3.10;;;18.80;96.30;;;;;;5051798;28;20798;-81
2022/08/26 05:56:09;;;;;;;3.80;3.50;;;18.80;96.80;;;;;;5067169;28;20629;-81
2022/08/26 05:58:37;;;;;;;3.77;3.30;;;18.70;97.40;;;;;;5060684;28;20710;-81
2022/08/26 06:01:09;;;;;;;4.60;3.40;;;18.70;97.50;;;;;;5048522;28;21381;-81
2022/08/26 06:03:37;;;;;;;3.43;3.13;;;18.70;97.90;;;;;;5047163;28;20629;-81
2022/08/26 06:06:06;;;;;;;3.97;3.50;;;18.60;98.10;;;;;;5051878;28;20625;-81
2022/08/26 06:08:35;;;;;;;3.90;3.50;;;18.60;97.30;;;;;;5056784;28;20707;-81
2022/08/26 06:11:04;;;;;;;3.23;3.00;;;18.70;97.10;;;;;;5051305;28;20660;-82
2022/08/26 06:13:32;;;;;;;4.97;3.20;;;18.60;97.40;;;;;;5062358;28;20618;-81
2022/08/26 06:16:02;;;;;;;4.10;3.70;;;18.60;98.00;;;;;;5049986;28;20619;-81
2022/08/26 06:18:33;;;;;;;4.90;3.67;;;18.50;98.20;;;;;;5060054;28;20624;-82
2022/08/26 06:21:02;;;;;;;5.33;4.07;;;18.50;98.40;;;;;;5064417;28;21265;-81
2022/08/26 06:26:16;;;;;;;3.83;3.43;;;18.50;98.20;;;;;;5053960;28;20626;-81
2022/08/26 06:28:44;;;;;;;3.90;3.57;;;18.80;96.90;;;;;;5059761;28;20625;-81
2022/08/26 06:31:11;;;;;;;4.67;4.27;;;19.00;95.90;;;;;;5065983;28;20633;-82
2022/08/26 06:33:38;;;;;;;3.80;3.37;;;19.00;96.10;;;;;;5053717;28;20725;-82
2022/08/26 06:36:05;;;;;;;3.80;3.50;;;19.10;96.70;;;;;;5064444;28;20988;-82
2022/08/26 06:38:32;;;;;;;4.77;3.83;;;;;;;;;;5069364;28;21362;-82
2022/08/26 06:40:59;;;;;;;3.30;3.00;;;19.20;96.70;;;;;;5055151;28;21663;-81
2022/08/26 06:43:29;;;;;;;4.77;3.97;;;19.30;97.00;;;;;;5066891;28;20636;-82
2022/08/26 06:46:03;;;;;;;3.67;3.33;;;19.40;96.20;;;;;;5068910;28;20653;-82
2022/08/26 06:48:30;;;;;;;3.50;3.20;;;19.70;95.80;;;;;;5069046;28;20702;-82
2022/08/26 06:51:07;;;;;;;4.13;3.73;;;19.90;95.10;;;;;;5056022;28;20725;-82
2022/08/26 06:53:35;;;;;;;3.90;3.50;;;20.10;95.00;;;;;;5059421;28;20628;-82
2022/08/26 06:56:04;;;;;;;4.80;4.17;;;20.30;94.40;;;;;;5068394;28;20644;-82
2022/08/26 06:58:35;;;;;;;4.60;3.40;;;20.50;94.30;;;;;;5051686;28;20611;-82
2022/08/26 07:01:02;;;;;;;5.73;3.37;;;20.60;93.90;;;;;;5051171;28;20672;-82
2022/08/26 07:03:29;;;;;;;5.57;3.97;;;20.80;93.50;;;;;;5052994;28;20626;-82
2022/08/26 07:06:01;;;;;;;4.03;3.63;;;20.80;93.50;;;;;;5061003;28;20737;-83
2022/08/26 07:08:28;;;;;;;3.50;3.20;;;21.00;93.00;;;;;;5048821;28;21256;-83
2022/08/26 07:10:56;;;;;;;4.17;3.77;;;21.30;92.20;;;;;;5067790;28;20633;-82
2022/08/26 07:13:23;;;;;;;3.50;2.93;;;21.50;91.30;;;;;;5060597;28;20630;-84
2022/08/26 07:15:51;;;;;;;3.80;3.40;;;21.50;91.40;;;;;;5064099;28;20629;-82
2022/08/26 07:18:18;;;;;;;3.30;3.00;;;;;;;;;;5056343;28;21169;-82
2022/08/26 07:20:47;;;;;;;4.30;3.60;;;21.60;90.80;;;;;;5052658;28;21240;-82
2022/08/26 07:23:15;;;;;;;3.00;2.80;;;21.70;91.10;;;;;;5066544;28;20682;-82
2022/08/26 07:25:42;;;;;;;4.10;3.70;;;21.80;91.60;;;;;;5069114;28;20678;-83
2022/08/26 07:28:09;;;;;;;4.07;3.67;;;22.00;91.00;;;;;;5068299;28;20679;-83
2022/08/26 07:30:39;;;;;;;3.80;3.30;;;22.20;90.60;;;;;;5067688;28;20629;-83
2022/08/26 07:33:08;;;;;;;4.50;3.30;;;22.20;90.60;;;;;;5064002;28;20625;-86
2022/08/26 07:35:35;;;;;;;3.90;3.47;;;22.20;90.70;;;;;;5068916;28;20703;-83
2022/08/26 07:38:02;;;;;;;4.50;4.13;;;22.10;90.90;;;;;;5063337;28;20696;-84
2022/08/26 07:40:32;;;;;;;7.67;6.23;;;22.00;90.90;;;;;;5055135;28;20693;-83
2022/08/26 07:43:00;;;;;;;4.93;4.17;;;21.90;91.60;;;;;;5066561;28;21229;-84
2022/08/26 07:45:26;;;;;;;3.77;3.43;;;21.90;91.60;;;;;;5051958;28;20721;-84
2022/08/26 07:47:53;;;;;;;3.50;3.20;;;21.90;91.30;;;;;;5067590;28;20683;-82
2022/08/26 07:50:22;;;;;;;4.00;3.60;;;21.90;91.40;;;;;;5061977;28;20678;-84
2022/08/26 07:52:49;;;;;;;3.70;3.40;;;21.90;91.60;;;;;;5065217;28;20636;-84
2022/08/26 07:55:16;;;;;;;10.97;4.00;;;21.80;90.70;;;;;;5067576;28;21297;-83
2022/08/26 07:57:44;;;;;;;4.00;3.60;;;21.80;90.80;;;;;;5048968;28;20627;-84
2022/08/26 08:00:14;;;;;;;3.10;2.90;;;21.80;90.70;;;;;;5059158;28;20665;-83
2022/08/26 08:02:43;;;;;;;3.97;3.67;;;21.90;90.80;;;;;;5059312;28;21463;-83
2022/08/26 08:05:13;;;;;;;3.50;3.20;;;21.80;90.90;;;;;;5048270;28;20764;-83
2022/08/26 08:07:43;;;;;;;3.70;3.40;;;22.00;91.00;;;;;;5048574;28;21177;-83
2022/08/26 08:10:12;;;;;;;3.33;3.03;;;21.90;90.40;;;;;;5063730;28;20628;-83
2022/08/26 08:12:39;;;;;;;4.10;3.80;;;22.00;90.10;;;;;;5051305;28;20717;-83
2022/08/26 08:15:07;;;;;;;4.47;3.53;;;22.10;91.10;;;;;;5058376;28;20670;-83
2022/08/26 08:17:34;;;;;;;4.10;3.70;;;22.20;91.10;;;;;;5063182;28;20719;-83
2022/08/26 08:20:03;;;;;;;3.47;3.17;;;22.40;90.50;;;;;;5058807;28;20650;-83
2022/08/26 08:22:31;;;;;;;4.23;3.83;;;22.50;90.10;;;;;;5052691;28;20638;-83
2022/08/26 08:24:59;;;;;;;7.70;5.30;;;22.60;89.60;;;;;;5062309;28;21054;-83
2022/08/26 08:27:26;;;;;;;3.27;3.07;;;22.80;89.00;;;;;;5049291;28;20676;-83
2022/08/26 08:29:54;;;;;;;4.70;4.30;;;23.00;89.20;;;;;;5049237;28;21212;-83
2022/08/26 08:32:21;;;;;;;5.07;4.17;;;23.00;87.00;;;;;;5064894;28;20630;-82
2022/08/26 08:34:48;;;;;;;4.37;3.73;;;22.80;88.00;;;;;;5054299;28;20653;-83
2022/08/26 08:37:15;;;;;;;3.60;3.30;;;23.20;87.90;;;;;;5063121;28;20625;-83
2022/08/26 08:39:42;;;;;;;3.60;3.30;;;23.40;86.70;;;;;;5048929;28;21319;-84
2022/08/26 08:42:30;;;;;;;4.10;3.70;;;23.50;85.70;;;;;;5056089;28;20634;-83
2022/08/26 08:45:01;;;;;;;4.37;3.93;;;23.60;86.70;;;;;;5055716;28;20649;-84
2022/08/26 08:47:33;;;;;;;4.33;3.93;;;23.80;85.80;;;;;;5056650;28;20625;-84
2022/08/26 08:50:08;;;;;;;3.77;3.47;;;23.90;85.20;;;;;;5058183;28;21039;-83
2022/08/26 08:52:36;;;;;;;3.23;2.93;;;23.90;84.40;;;;;;5055096;28;20629;-83
2022/08/26 08:55:06;;;;;;;4.37;4.07;;;23.90;85.80;;;;;;5056585;28;21230;-84
2022/08/26 08:57:45;;;;;;;4.70;3.87;;;23.90;85.40;;;;;;5056284;28;20630;-83
2022/08/26 09:00:17;;;;;;;4.03;3.63;;;24.00;86.50;;;;;;5055089;28;20645;-83
2022/08/26 09:02:53;;;;;;;4.03;3.47;;;24.00;86.70;;;;;;5056776;28;20624;-84
2022/08/26 09:05:23;;;;;;;4.30;3.90;;;24.00;85.50;;;;;;5055084;28;20728;-85
2022/08/26 09:07:55;;;;;;;4.50;4.10;;;24.10;85.60;;;;;;5056240;28;20619;-85
2022/08/26 09:10:36;;;;;;;4.43;3.73;;;24.10;85.70;;;;;;5055704;28;20648;-86
2022/08/26 09:13:08;;;;;;;4.43;4.03;;;24.10;86.80;;;;;;5055068;28;20610;-86
2022/08/26 09:15:48;;;;;;;4.43;4.00;;;24.00;87.60;;;;;;5056055;28;20630;-84
2022/08/26 09:18:24;;;;;;;4.47;3.90;;;24.00;88.30;;;;;;5056701;28;20626;-85
2022/08/26 09:20:56;;;;;;;4.07;3.67;;;24.00;88.20;;;;;;5056892;28;20693;-84
2022/08/26 09:23:24;;;;;;;4.30;3.87;;;24.00;88.00;;;;;;5055299;28;20626;-83
2022/08/26 09:25:54;;;;;;;4.50;4.17;;;24.10;87.90;;;;;;5049957;28;20688;-83
2022/08/26 09:28:25;;;;;;;4.13;3.73;;;24.30;87.30;;;;;;5063418;28;20633;-83
2022/08/26 09:31:02;;;;;;;3.33;3.03;;;24.40;85.90;;;;;;5067531;28;20614;-84
2022/08/26 09:33:31;;;;;;;4.60;4.13;;;24.60;85.00;;;;;;5067145;28;20716;-84
2022/08/26 09:36:14;;;;;;;4.20;3.50;;;24.60;85.40;;;;;;5054564;28;20626;-83
2022/08/26 09:38:41;;;;;;;4.43;3.40;;;24.70;85.10;;;;;;5065641;28;20721;-84
2022/08/26 09:41:26;;;;;;;3.10;2.90;;;24.80;84.40;;;;;;5047016;28;20650;-83
2022/08/26 09:44:15;;;;;;;4.40;4.10;;;24.80;85.20;;;;;;5053288;28;21368;-83
2022/08/26 09:46:46;;;;;;;4.90;4.40;;;24.90;84.90;;;;;;5064192;28;20634;-84
2022/08/26 09:49:24;;;;;;;4.03;3.63;;;25.00;84.40;;;;;;5047959;28;20635;-84
2022/08/26 09:52:07;;;;;;;4.33;3.93;;;25.20;84.00;;;;;;5059811;28;20708;-84
2022/08/26 09:54:36;;;;;;;4.00;3.70;;;25.40;82.00;;;;;;5060454;28;20669;-84
2022/08/26 09:57:18;;;;;;;7.63;3.70;;;25.70;82.30;;;;;;5049721;28;21042;-83
2022/08/26 09:59:49;;;;;;;4.27;3.77;;;25.90;81.20;;;;;;5052769;28;20634;-83
2022/08/26 10:02:28;;;;;;;4.27;3.63;;;26.10;79.80;;;;;;5057339;28;21258;-84
2022/08/26 10:04:58;;;;;;;4.33;3.93;;;26.40;78.70;;;;;;5061659;28;20657;-84
2022/08/26 10:07:39;;;;;;;4.00;3.60;;;26.50;77.30;;;;;;5052079;28;20651;-84
2022/08/26 10:10:09;;;;;;;3.57;3.27;;;26.70;75.40;;;;;;5063461;28;20617;-85
2022/08/26 10:12:43;;;;;;;3.30;2.93;;;26.90;74.40;;;;;;5070874;28;20648;-85
2022/08/26 10:15:14;;;;;;;4.47;4.07;;;27.00;73.10;;;;;;5055911;28;20713;-84
2022/08/26 10:17:47;;;;;;;4.07;3.77;;;27.10;73.10;;;;;;5061645;28;20629;-85
2022/08/26 10:20:19;;;;;;;4.93;3.67;;;27.30;72.40;;;;;;5069339;28;21203;-85
2022/08/26 10:22:52;;;;;;;3.80;3.50;;;27.50;70.70;;;;;;5069019;28;21081;-85
2022/08/26 10:25:24;;;;;;;5.00;3.77;;;27.70;69.90;;;;;;5069757;28;20625;-85
2022/08/26 10:27:59;;;;;;;5.23;3.80;;;27.80;70.00;;;;;;5068217;28;20634;-86
2022/08/26 10:30:33;;;;;;;4.77;3.33;;;28.00;70.00;;;;;;5069126;28;20967;-84
2022/08/26 10:33:04;;;;;;;4.23;3.50;;;28.10;69.20;;;;;;5065696;28;21567;-85
2022/08/26 10:35:35;;;;;;;4.93;3.17;;;28.30;67.70;;;;;;5063430;28;20625;-85
2022/08/26 10:38:07;;;;;;;6.50;4.07;;;28.30;66.60;;;;;;5071248;28;20617;-84
2022/08/26 10:40:42;;;;;;;4.60;4.10;;;28.40;66.40;;;;;;5070796;28;20625;-85
2022/08/26 10:43:14;;;;;;;3.73;3.30;;;28.50;64.20;;;;;;5070614;28;20609;-84
2022/08/26 10:45:49;;;;;;;4.50;3.23;;;28.50;64.20;;;;;;5069086;28;20612;-85
2022/08/26 10:48:21;;;;;;;3.33;3.03;;;28.50;64.00;;;;;;5052032;28;20626;-85
2022/08/26 10:50:48;;;;;;;3.60;3.30;;;28.80;65.10;;;;;;5058868;28;20728;-85
2022/08/26 10:53:33;;;;;;;3.83;3.47;;;29.00;61.10;;;;;;5060964;28;20657;-85
2022/08/26 10:56:05;;;;;;;4.27;3.60;;;29.10;62.40;;;;;;5068216;28;20632;-85
2022/08/26 10:58:50;;;;;;;4.23;3.60;;;29.30;59.60;;;;;;5068442;28;20613;-84
2022/08/26 11:01:42;;;;;;;3.53;3.20;;;29.40;61.00;;;;;;5052972;28;20743;-85
2022/08/26 11:04:38;;;;;;;4.33;3.90;;;29.50;59.40;;;;;;5051559;28;20700;-84
2022/08/26 11:07:40;;;;;;;3.67;3.37;;;29.60;58.30;;;;;;5056104;28;20644;-85
2022/08/26 11:10:38;;;;;;;3.33;2.90;;;29.50;59.60;;;;;;5007481;28;20807;-85
2022/08/26 11:13:06;;;;;;;4.10;3.70;;;29.10;58.90;;;;;;5067094;28;20637;-84
2022/08/26 11:15:58;;;;;;;4.33;3.60;;;29.30;59.50;;;;;;5065413;28;20637;-85
2022/08/26 11:18:47;;;;;;;2.97;2.73;;;29.60;59.40;;;;;;5046770;28;20633;-85
2022/08/26 11:21:52;;;;;;;3.60;3.30;;;29.70;58.20;;;;;;5058611;28;21453;-85
2022/08/26 11:24:56;;;;;;;4.57;4.17;;;29.70;58.30;;;;;;5050150;28;20626;-85
2022/08/26 11:28:05;;;;;;;4.40;4.00;;;29.60;57.60;;;;;;5053242;28;21234;-84
2022/08/26 11:30:55;;;;;;;3.00;2.77;;;29.90;58.20;;;;;;5062456;28;20621;-85
2022/08/26 11:33:58;;;;;;;5.00;3.80;;;29.40;56.70;;;;;;5064925;28;20626;-85
2022/08/26 11:36:55;;;;;;;4.20;3.80;;;29.20;58.40;;;;;;5066967;28;20620;-85
2022/08/26 11:39:27;;;;;;;3.97;3.57;;;28.90;59.70;;;;;;5057807;28;20613;-84
2022/08/26 11:41:58;;;;;;;4.37;3.10;;;28.80;58.90;;;;;;5055686;28;20688;-84
2022/08/26 11:44:27;;;;;;;3.67;3.37;;;28.70;57.70;;;;;;5056332;28;20637;-84
2022/08/26 11:46:57;;;;;;;6.93;3.20;;;28.60;57.40;;;;;;5054703;28;20634;-84
2022/08/26 11:49:27;;;;;;;3.10;2.90;;;28.50;57.80;;;;;;5049796;28;20954;-84
2022/08/26 11:52:13;;;;;;;4.87;3.43;;;29.00;57.70;;;;;;5057679;28;20627;-83
2022/08/26 11:54:40;;;;;;;7.70;3.50;;;29.50;55.60;;;;;;5054562;28;20632;-83
2022/08/26 11:57:12;;;;;;;3.30;3.00;;;30.30;56.70;;;;;;5063452;28;20641;-84
2022/08/26 11:59:42;;;;;;;4.70;4.30;;;30.60;55.40;;;;;;5056256;28;20633;-84
2022/08/26 12:02:14;;;;;;;3.90;3.50;;;30.50;55.10;;;;;;5049747;28;20670;-84
2022/08/26 12:04:47;;;;;;;4.37;3.53;;;30.10;56.00;;;;;;5060457;28;20744;-84
2022/08/26 12:07:15;;;;;;;3.07;2.77;;;29.70;56.60;;;;;;5063665;28;20873;-84
2022/08/26 12:09:53;;;;;;;4.47;4.07;;;29.10;57.40;;;;;;5054786;28;21211;-84
2022/08/26 12:12:26;;;;;;;4.20;3.60;;;29.00;58.10;;;;;;5048234;28;21011;-84
2022/08/26 12:15:15;;;;;;;4.10;3.70;;;28.90;58.00;;;;;;5062479;28;21034;-84
2022/08/26 12:17:44;;;;;;;4.80;4.40;;;28.60;59.30;;;;;;5049504;28;20696;-86
2022/08/26 12:20:29;;;;;;;4.20;3.50;;;29.50;59.40;;;;;;5052261;28;20610;-85
2022/08/26 12:22:59;;;;;;;4.27;3.83;;;30.50;57.50;;;;;;5065251;28;21026;-86
2022/08/26 12:25:26;;;;;;;3.93;3.50;;;31.00;56.20;;;;;;5066764;28;20975;-86
2022/08/26 12:27:54;;;;;;;3.93;3.57;;;31.80;54.80;;;;;;5058597;28;20637;-86
2022/08/26 12:30:24;;;;;;;3.70;3.37;;;32.00;53.30;;;;;;5061021;28;20692;-87
2022/08/26 12:32:53;;;;;;;3.50;3.20;;;32.00;53.00;;;;;;5062950;28;20629;-86
2022/08/26 12:35:22;;;;;;;5.37;3.93;;;31.60;53.10;;;;;;5054884;28;20625;-86
2022/08/26 12:37:51;;;;;;;4.97;4.43;;;31.60;53.90;;;;;;5050096;28;20670;-87
2022/08/26 12:40:38;;;;;;;3.90;3.60;;;31.90;53.60;;;;;;5064906;28;20639;-87
2022/08/26 12:43:06;;;;;;;3.50;3.27;;;32.30;52.70;;;;;;5066779;28;20738;-87
2022/08/26 12:45:36;;;;;;;3.40;3.10;;;32.50;52.50;;;;;;5053413;28;20677;-87
2022/08/26 12:48:07;;;;;;;3.63;3.33;;;32.80;53.10;;;;;;5062068;28;21038;-87
2022/08/26 12:50:37;;;;;;;4.60;4.17;;;32.90;51.00;;;;;;5061311;28;20637;-86
2022/08/26 12:53:21;;;;;;;3.47;3.17;;;33.30;51.10;;;;;;5060970;28;20712;-86
2022/08/26 12:56:31;;;;;;;3.57;3.13;;;33.80;49.60;;;;;;5083190;27;20811;-85
2022/08/26 12:59:22;;;;;;;4.10;3.70;;;33.80;48.70;;;;;;5062149;28;20629;-86
2022/08/26 13:01:51;;;;;;;4.50;4.10;;;32.80;49.30;;;;;;5060423;28;21185;-86
2022/08/26 13:04:41;;;;;;;4.33;3.93;;;32.00;50.90;;;;;;5063011;28;20629;-85
2022/08/26 13:07:21;;;;;;;4.77;4.20;;;31.50;52.70;;;;;;5068966;28;20662;-85
2022/08/26 13:09:50;;;;;;;4.73;3.80;;;31.20;53.00;;;;;;5063580;28;20614;-85
2022/08/26 13:12:27;;;;;;;5.07;4.63;;;30.70;54.10;;;;;;5061001;28;20618;-84
2022/08/26 13:15:01;;;;;;;5.77;4.63;;;30.20;55.30;;;;;;5063417;28;20653;-85